createdAt,value
2023-11-18T00:02:16.549Z,30.20
2023-11-18T00:04:43.497Z,30.92
2023-11-18T00:07:10.510Z,32.35
2023-11-18T00:09:37.937Z,28.02
2023-11-18T00:12:05.542Z,29.77
2023-11-18T00:14:32.320Z,31.75
2023-11-18T00:17:00.347Z,28.85
2023-11-18T00:19:27.724Z,29.52
2023-11-18T00:21:54.740Z,30.63
2023-11-18T00:24:22.285Z,31.05
2023-11-18T00:26:49.130Z,28.10
2023-11-18T00:29:15.987Z,28.50
2023-11-18T00:31:43.006Z,30.17
2023-11-18T00:34:12.063Z,28.90
2023-11-18T00:36:38.930Z,31.33
2023-11-18T00:39:05.835Z,33.15
2023-11-18T00:41:33.306Z,29.52
2023-11-18T00:44:01.627Z,31.73
2023-11-18T00:46:28.691Z,29.63
2023-11-18T00:48:55.689Z,33.13
2023-11-18T00:51:22.567Z,31.23
2023-11-18T00:53:49.470Z,32.63
2023-11-18T00:56:19.469Z,32.35
2023-11-18T00:58:46.489Z,30.65
2023-11-18T01:01:13.377Z,32.75
2023-11-18T01:03:40.278Z,30.35
2023-11-18T01:06:07.331Z,29.85
2023-11-18T01:08:34.248Z,30.67
2023-11-18T01:11:01.361Z,28.42
2023-11-18T01:13:28.353Z,30.38
2023-11-18T01:15:55.245Z,30.83
2023-11-18T01:18:22.280Z,28.10
2023-11-18T01:20:49.259Z,32.17
2023-11-18T01:23:16.490Z,28.15
2023-11-18T01:25:43.917Z,31.30
2023-11-18T01:28:10.939Z,30.08
2023-11-18T01:30:38.928Z,26.55
2023-11-18T01:33:06.049Z,27.25
2023-11-18T01:35:32.923Z,27.58
2023-11-18T01:37:59.933Z,28.17
2023-11-18T01:40:27.097Z,27.77
2023-11-18T01:42:53.931Z,28.65
2023-11-18T01:45:20.898Z,26.10
2023-11-18T01:47:51.556Z,27.25
2023-11-18T01:50:19.641Z,27.88
2023-11-18T01:52:48.522Z,25.90
2023-11-18T01:55:15.610Z,27.67
2023-11-18T01:57:45.218Z,29.65
2023-11-18T02:00:14.103Z,28.48
2023-11-18T02:02:42.665Z,26.73
2023-11-18T02:05:09.842Z,27.38
2023-11-18T02:07:38.405Z,26.90
2023-11-18T02:10:10.441Z,29.35
2023-11-18T02:12:43.273Z,26.80
2023-11-18T02:15:13.913Z,27.63
2023-11-18T02:17:44.719Z,25.83
2023-11-18T02:20:22.177Z,32.47
2023-11-18T02:22:49.258Z,26.38
2023-11-18T02:25:19.802Z,28.80
2023-11-18T02:27:47.558Z,23.98
2023-11-18T02:30:18.698Z,26.70
2023-11-18T02:32:54.872Z,26.85
2023-11-18T02:35:31.181Z,27.15
2023-11-18T02:38:01.659Z,28.17
2023-11-18T02:40:36.937Z,32.13
2023-11-18T02:43:06.581Z,25.88
2023-11-18T02:45:37.216Z,27.60
2023-11-18T02:48:07.431Z,29.00
2023-11-18T02:50:36.532Z,26.73
2023-11-18T02:53:03.964Z,28.05
2023-11-18T02:55:30.873Z,26.88
2023-11-18T02:57:58.245Z,27.92
2023-11-18T03:00:25.337Z,28.10
2023-11-18T03:02:53.287Z,25.20
2023-11-18T03:05:22.251Z,29.50
2023-11-18T03:07:54.718Z,27.40
2023-11-18T03:10:22.778Z,32.30
2023-11-18T03:12:51.784Z,31.52
2023-11-18T03:15:19.413Z,25.83
2023-11-18T03:17:49.499Z,31.38
2023-11-18T03:20:18.202Z,29.55
2023-11-18T03:22:47.371Z,26.33
2023-11-18T03:25:15.061Z,29.08
2023-11-18T03:27:42.247Z,28.45
2023-11-18T03:30:10.460Z,30.73
2023-11-18T03:32:40.921Z,26.77
2023-11-18T03:35:12.608Z,26.65
2023-11-18T03:37:44.957Z,27.80
2023-11-18T03:40:15.557Z,28.77
2023-11-18T03:42:43.402Z,26.23
2023-11-18T03:45:11.437Z,28.83
2023-11-18T03:47:38.887Z,28.08
2023-11-18T03:50:06.752Z,34.88
2023-11-18T03:52:35.707Z,29.63
2023-11-18T03:55:05.641Z,28.98
2023-11-18T03:57:33.521Z,29.25
2023-11-18T04:00:00.425Z,27.02
2023-11-18T04:02:27.515Z,30.33
2023-11-18T04:04:54.482Z,28.60
2023-11-18T04:07:22.878Z,29.33
2023-11-18T04:09:49.729Z,30.13
2023-11-18T04:12:17.356Z,26.90
2023-11-18T04:14:44.195Z,29.30
2023-11-18T04:17:11.157Z,27.83
2023-11-18T04:19:40.146Z,23.85
2023-11-18T04:22:07.240Z,25.42
2023-11-18T04:24:36.053Z,32.40
2023-11-18T04:27:03.415Z,27.08
2023-11-18T04:29:31.077Z,26.25
2023-11-18T04:31:58.074Z,28.80
2023-11-18T04:34:25.907Z,27.65
2023-11-18T04:36:52.748Z,27.30
2023-11-18T04:39:20.435Z,24.73
2023-11-18T04:41:48.097Z,26.23
2023-11-18T04:44:15.198Z,27.00
2023-11-18T04:46:42.010Z,25.73
2023-11-18T04:49:08.962Z,26.30
2023-11-18T04:51:36.528Z,31.42
2023-11-18T04:54:04.541Z,28.17
2023-11-18T04:56:31.535Z,29.70
2023-11-18T04:58:58.391Z,27.15
2023-11-18T05:01:25.223Z,28.90
2023-11-18T05:03:52.502Z,29.70
2023-11-18T05:06:21.245Z,27.30
2023-11-18T05:08:48.158Z,27.27
2023-11-18T05:11:15.156Z,25.38
2023-11-18T05:13:42.476Z,27.20
2023-11-18T05:16:11.650Z,27.70
2023-11-18T05:18:39.931Z,27.90
2023-11-18T05:21:07.942Z,28.80
2023-11-18T05:23:37.681Z,25.23
2023-11-18T05:26:07.990Z,26.92
2023-11-18T05:28:35.365Z,26.45
2023-11-18T05:31:03.625Z,28.75
2023-11-18T05:33:31.278Z,26.50
2023-11-18T05:35:58.323Z,29.42
2023-11-18T05:38:29.986Z,31.17
2023-11-18T05:40:57.983Z,27.50
2023-11-18T05:43:30.573Z,32.05
2023-11-18T05:46:19.410Z,30.20
2023-11-18T05:48:46.541Z,29.15
2023-11-18T05:51:13.984Z,29.77
2023-11-18T05:53:48.043Z,28.08
2023-11-18T05:56:17.820Z,30.15
2023-11-18T05:58:45.061Z,31.50
2023-11-18T06:01:17.719Z,29.48
2023-11-18T06:03:46.850Z,28.55
2023-11-18T06:06:20.004Z,29.40
2023-11-18T06:08:49.844Z,32.25
2023-11-18T06:11:17.696Z,33.80
2023-11-18T06:13:53.342Z,27.45
2023-11-18T06:16:23.254Z,31.17
2023-11-18T06:18:56.068Z,27.95
2023-11-18T06:21:26.285Z,28.42
2023-11-18T06:23:55.840Z,29.88
2023-11-18T06:26:22.862Z,31.35
2023-11-18T06:28:52.839Z,30.38
2023-11-18T06:31:21.340Z,27.88
2023-11-18T06:33:50.301Z,29.60
2023-11-18T06:36:18.023Z,28.83
2023-11-18T06:38:47.084Z,28.17
2023-11-18T06:41:16.358Z,30.05
2023-11-18T06:43:55.250Z,28.80
2023-11-18T06:46:35.876Z,25.20
2023-11-18T06:49:08.429Z,26.15
2023-11-18T06:51:37.571Z,26.95
2023-11-18T06:54:12.184Z,26.58
2023-11-18T06:56:45.172Z,28.45
2023-11-18T06:59:15.884Z,27.65
2023-11-18T07:01:45.098Z,28.25
2023-11-18T07:04:12.541Z,27.30
2023-11-18T07:06:39.400Z,23.42
2023-11-18T07:09:15.383Z,24.63
2023-11-18T07:11:42.485Z,24.40
2023-11-18T07:14:11.693Z,27.70
2023-11-18T07:16:42.972Z,22.27
2023-11-18T07:19:20.731Z,24.10
2023-11-18T07:21:50.206Z,26.85
2023-11-18T07:24:18.083Z,25.92
2023-11-18T07:26:46.354Z,23.88
2023-11-18T07:29:13.336Z,25.20
2023-11-18T07:31:40.342Z,24.85
2023-11-18T07:34:07.336Z,23.35
2023-11-18T07:36:34.445Z,22.92
2023-11-18T07:39:03.734Z,24.98
2023-11-18T07:41:33.792Z,23.58
2023-11-18T07:44:01.805Z,23.45
2023-11-18T07:46:31.508Z,26.05
2023-11-18T07:48:58.813Z,24.90
2023-11-18T07:51:26.088Z,22.27
2023-11-18T07:53:56.439Z,23.55
2023-11-18T07:56:24.397Z,25.42
2023-11-18T07:58:53.014Z,22.73
2023-11-18T08:01:22.325Z,21.95
2023-11-18T08:03:49.545Z,23.63
2023-11-18T08:06:16.600Z,23.75
2023-11-18T08:08:43.470Z,19.85
2023-11-18T08:11:13.834Z,22.65
2023-11-18T08:13:41.253Z,23.13
2023-11-18T08:16:09.668Z,20.08
2023-11-18T08:18:36.833Z,21.08
2023-11-18T08:21:06.163Z,22.05
2023-11-18T08:23:33.006Z,18.63
2023-11-18T08:26:00.108Z,20.77
2023-11-18T08:28:27.137Z,22.10
2023-11-18T08:30:54.362Z,20.58
2023-11-18T08:33:25.511Z,19.70
2023-11-18T08:35:53.002Z,25.95
2023-11-18T08:38:20.833Z,18.25
2023-11-18T08:40:49.717Z,22.77
2023-11-18T08:43:17.628Z,18.27
2023-11-18T08:45:44.881Z,17.70
2023-11-18T08:48:12.081Z,21.52
2023-11-18T08:50:44.239Z,19.73
2023-11-18T08:53:13.027Z,17.58
2023-11-18T08:55:41.654Z,17.50
2023-11-18T08:58:23.335Z,16.92
2023-11-18T09:00:53.737Z,20.75
2023-11-18T09:03:26.703Z,19.30
2023-11-18T09:05:59.515Z,19.10
2023-11-18T09:08:39.774Z,20.85
2023-11-18T09:11:15.769Z,18.23
2023-11-18T09:13:54.813Z,14.55
2023-11-18T09:16:30.375Z,16.58
2023-11-18T09:19:00.429Z,20.35
2023-11-18T09:21:30.591Z,17.17
2023-11-18T09:23:57.869Z,17.08
2023-11-18T09:26:26.869Z,15.20
2023-11-18T09:28:54.138Z,15.75
2023-11-18T09:31:22.164Z,16.85
2023-11-18T09:33:53.197Z,16.65
2023-11-18T09:36:21.410Z,15.73
2023-11-18T09:38:49.433Z,16.73
2023-11-18T09:41:17.675Z,14.68
2023-11-18T09:43:47.236Z,20.75
2023-11-18T09:46:17.385Z,14.88
2023-11-18T09:49:01.344Z,12.32
2023-11-18T09:51:39.862Z,13.32
2023-11-18T09:54:52.249Z,18.00
2023-11-18T09:57:34.585Z,15.52
2023-11-18T10:00:22.749Z,14.75
2023-11-18T10:02:53.861Z,13.63
2023-11-18T10:05:23.449Z,12.02
2023-11-18T10:07:51.289Z,14.27
2023-11-18T10:10:21.536Z,18.85
2023-11-18T10:12:54.167Z,13.20
2023-11-18T10:15:24.744Z,12.63
2023-11-18T10:18:09.633Z,11.98
2023-11-18T10:20:52.992Z,14.75
2023-11-18T10:23:22.974Z,10.93
2023-11-18T10:25:57.809Z,11.65
2023-11-18T10:28:34.259Z,14.32
2023-11-18T10:31:06.693Z,13.05
2023-11-18T10:33:42.558Z,14.85
2023-11-18T10:36:24.122Z,12.02
2023-11-18T10:38:56.559Z,14.23
2023-11-18T10:41:26.713Z,9.57
2023-11-18T10:44:14.877Z,9.23
2023-11-18T10:47:03.049Z,12.98
2023-11-18T10:49:37.743Z,15.13
2023-11-18T10:52:09.213Z,13.02
2023-11-18T10:54:36.279Z,11.07
2023-11-18T10:57:08.853Z,10.45
2023-11-18T10:59:37.787Z,14.13
2023-11-18T11:02:22.804Z,10.77
2023-11-18T11:04:50.174Z,10.07
2023-11-18T11:07:21.056Z,10.80
2023-11-18T11:09:47.925Z,9.13
2023-11-18T11:12:18.011Z,10.93
2023-11-18T11:15:00.689Z,9.23
2023-11-18T11:17:35.737Z,8.38
2023-11-18T11:20:19.339Z,9.10
2023-11-18T11:23:29.454Z,8.05
2023-11-18T11:26:14.853Z,11.93
2023-11-18T11:28:54.694Z,10.95
2023-11-18T11:31:37.346Z,10.75
2023-11-18T11:34:26.612Z,10.27
2023-11-18T11:36:56.579Z,10.68
2023-11-18T11:39:27.185Z,13.02
2023-11-18T11:41:57.376Z,7.88
2023-11-18T11:44:31.548Z,10.02
2023-11-18T11:47:01.899Z,9.38
2023-11-18T11:49:48.620Z,7.22
2023-11-18T11:52:29.374Z,6.63
2023-11-18T11:55:14.473Z,7.53
2023-11-18T11:57:43.954Z,10.05
2023-11-18T12:00:18.378Z,9.10
2023-11-18T12:02:55.992Z,10.40
2023-11-18T12:05:28.399Z,8.30
2023-11-18T12:07:57.446Z,7.63
2023-11-18T12:10:33.802Z,7.72
2023-11-18T12:13:21.154Z,8.52
2023-11-18T12:16:04.890Z,10.93
2023-11-18T12:18:37.755Z,10.20
2023-11-18T12:21:05.820Z,8.48
2023-11-18T12:23:35.862Z,11.00
2023-11-18T12:26:04.111Z,10.43
2023-11-18T12:28:36.260Z,7.82
2023-11-18T12:31:17.839Z,8.32
2023-11-18T12:33:57.994Z,8.15
2023-11-18T12:36:31.411Z,6.30
2023-11-18T12:39:42.040Z,6.57
2023-11-18T12:42:20.831Z,8.48
2023-11-18T12:45:25.740Z,7.25
2023-11-18T12:47:59.306Z,8.55
2023-11-18T12:50:29.687Z,7.15
2023-11-18T12:52:58.580Z,8.95
2023-11-18T12:55:27.570Z,6.38
2023-11-18T12:57:55.250Z,8.05
2023-11-18T13:00:28.927Z,6.40
2023-11-18T13:02:56.315Z,7.28
2023-11-18T13:05:23.464Z,7.57
2023-11-18T13:07:51.217Z,5.90
2023-11-18T13:10:18.388Z,7.63
2023-11-18T13:12:46.808Z,5.28
2023-11-18T13:15:13.891Z,4.53
2023-11-18T13:17:41.887Z,4.55
2023-11-18T13:20:16.174Z,5.18
2023-11-18T13:22:48.119Z,6.05
2023-11-18T13:25:18.296Z,6.43
2023-11-18T13:27:45.551Z,5.30
2023-11-18T13:30:14.786Z,4.32
2023-11-18T13:32:43.837Z,3.95
2023-11-18T13:35:15.301Z,4.55
2023-11-18T13:37:42.879Z,5.30
2023-11-18T13:40:10.950Z,6.30
2023-11-18T13:42:40.135Z,4.97
2023-11-18T13:45:24.033Z,5.05
2023-11-18T13:48:00.672Z,3.50
2023-11-18T13:50:28.066Z,4.75
2023-11-18T13:52:55.355Z,3.75
2023-11-18T13:55:28.878Z,2.75
2023-11-18T13:57:58.611Z,3.25
2023-11-18T14:00:32.298Z,1.73
2023-11-18T14:03:01.404Z,2.47
2023-11-18T14:05:28.550Z,2.00
2023-11-18T14:08:09.676Z,2.28
2023-11-18T14:10:41.876Z,2.53
2023-11-18T14:13:13.445Z,3.05
2023-11-18T14:15:43.519Z,3.58
2023-11-18T14:18:10.423Z,2.45
2023-11-18T14:20:38.321Z,2.13
2023-11-18T14:23:05.370Z,2.97
2023-11-18T14:25:33.304Z,2.80
2023-11-18T14:28:00.636Z,2.85
2023-11-18T14:30:27.528Z,4.53
2023-11-18T14:32:54.774Z,1.70
2023-11-18T14:35:22.100Z,2.65
2023-11-18T14:37:49.411Z,2.67
2023-11-18T14:40:17.338Z,3.75
2023-11-18T14:42:47.482Z,2.65
2023-11-18T14:45:16.015Z,2.83
2023-11-18T14:47:46.359Z,3.05
2023-11-18T14:50:19.349Z,2.22
2023-11-18T14:53:01.294Z,2.00
2023-11-18T14:55:30.859Z,1.40
2023-11-18T14:57:58.216Z,1.65
2023-11-18T15:00:27.931Z,1.30
2023-11-18T15:02:58.255Z,0.85
2023-11-18T15:05:28.492Z,1.40
2023-11-18T15:07:59.494Z,1.60
2023-11-18T15:10:28.659Z,1.60
2023-11-18T15:13:01.766Z,0.77
2023-11-18T15:15:33.358Z,2.38
2023-11-18T15:18:08.275Z,1.00
2023-11-18T15:20:36.771Z,1.30
2023-11-18T15:23:05.648Z,1.33
2023-11-18T15:25:32.782Z,1.20
2023-11-18T15:28:00.272Z,1.65
2023-11-18T15:30:28.241Z,2.10
2023-11-18T15:32:55.620Z,0.80
2023-11-18T15:35:23.173Z,1.27
2023-11-18T15:37:51.230Z,1.73
2023-11-18T15:40:22.399Z,1.45
2023-11-18T15:42:49.961Z,1.55
2023-11-18T15:45:22.328Z,1.90
2023-11-18T15:47:49.954Z,1.40
2023-11-18T15:50:17.984Z,2.03
2023-11-18T15:52:54.921Z,1.52
2023-11-18T15:55:22.768Z,1.20
2023-11-18T15:57:53.884Z,0.93
2023-11-18T16:00:25.842Z,0.88
2023-11-18T16:02:59.559Z,0.85
2023-11-18T16:05:29.373Z,1.73
2023-11-18T16:07:56.995Z,1.70
2023-11-18T16:10:25.878Z,0.98
2023-11-18T16:13:01.666Z,1.10
2023-11-18T16:15:31.656Z,0.88
2023-11-18T16:18:01.388Z,1.20
2023-11-18T16:20:35.393Z,1.27
2023-11-18T16:23:04.113Z,0.82
2023-11-18T16:25:31.814Z,1.38
2023-11-18T16:28:01.126Z,1.27
2023-11-18T16:30:31.161Z,1.42
2023-11-18T16:33:00.303Z,3.00
2023-11-18T16:35:27.840Z,1.42
2023-11-18T16:37:55.626Z,2.47
2023-11-18T16:40:24.744Z,1.55
2023-11-18T16:42:56.262Z,3.30
2023-11-18T16:45:25.013Z,1.63
2023-11-18T16:47:53.570Z,1.30
2023-11-18T16:50:24.168Z,1.50
2023-11-18T16:52:52.089Z,1.88
2023-11-18T16:55:19.609Z,1.83
2023-11-18T16:57:48.346Z,5.03
2023-11-18T17:00:17.035Z,1.42
2023-11-18T17:02:55.366Z,1.42
2023-11-18T17:05:23.849Z,1.50
2023-11-18T17:07:51.776Z,1.83
2023-11-18T17:10:18.640Z,1.63
2023-11-18T17:12:47.359Z,1.55
2023-11-18T17:15:16.421Z,1.90
2023-11-18T17:17:45.935Z,1.60
2023-11-18T17:20:15.591Z,1.85
2023-11-18T17:22:43.889Z,1.98
2023-11-18T17:25:19.095Z,2.22
2023-11-18T17:27:47.644Z,3.55
2023-11-18T17:30:18.855Z,3.10
2023-11-18T17:32:48.294Z,2.78
2023-11-18T17:35:17.872Z,3.15
2023-11-18T17:37:47.274Z,3.53
2023-11-18T17:40:17.641Z,3.60
2023-11-18T17:42:46.197Z,3.60
2023-11-18T17:45:15.496Z,4.25
2023-11-18T17:47:44.589Z,4.68
2023-11-18T17:50:16.325Z,5.53
2023-11-18T17:52:47.338Z,4.40
2023-11-18T17:55:14.493Z,5.13
2023-11-18T17:57:42.162Z,5.43
2023-11-18T18:00:13.822Z,5.97
2023-11-18T18:02:43.002Z,6.35
2023-11-18T18:05:13.544Z,6.85
2023-11-18T18:07:42.141Z,6.97
2023-11-18T18:10:11.243Z,7.25
2023-11-18T18:12:39.056Z,8.20
2023-11-18T18:15:09.881Z,8.43
2023-11-18T18:17:38.451Z,9.40
2023-11-18T18:20:15.392Z,9.13
2023-11-18T18:22:48.897Z,10.93
2023-11-18T18:25:15.965Z,10.32
2023-11-18T18:27:44.304Z,10.35
2023-11-18T18:30:11.788Z,11.15
2023-11-18T18:32:38.720Z,11.48
2023-11-18T18:35:06.997Z,12.00
2023-11-18T18:37:34.643Z,11.68
2023-11-18T18:40:02.229Z,12.20
2023-11-18T18:42:29.074Z,12.95
2023-11-18T18:44:56.177Z,11.55
2023-11-18T18:47:24.621Z,12.13
2023-11-18T18:49:53.568Z,12.85
2023-11-18T18:52:20.669Z,12.02
2023-11-18T18:54:47.854Z,12.43
2023-11-18T18:57:14.868Z,13.02
2023-11-18T18:59:43.687Z,11.43
2023-11-18T19:02:11.017Z,12.20
2023-11-18T19:04:38.304Z,11.88
2023-11-18T19:07:05.375Z,12.90
2023-11-18T19:09:32.237Z,11.88
2023-11-18T19:11:59.023Z,13.32
2023-11-18T19:14:27.098Z,11.82
2023-11-18T19:16:54.102Z,12.68
2023-11-18T19:19:21.005Z,12.68
2023-11-18T19:21:52.422Z,13.45
2023-11-18T19:24:20.694Z,13.05
2023-11-18T19:26:48.846Z,12.85
2023-11-18T19:29:16.155Z,13.15
2023-11-18T19:31:43.509Z,19.13
2023-11-18T19:34:11.330Z,14.80
2023-11-18T19:36:38.377Z,14.48
2023-11-18T19:39:05.249Z,16.92
2023-11-18T19:41:32.148Z,15.13
2023-11-18T19:43:59.624Z,14.85
2023-11-18T19:46:26.805Z,15.00
2023-11-18T19:48:53.894Z,15.10
2023-11-18T19:51:20.874Z,15.27
2023-11-18T19:53:48.114Z,14.82
2023-11-18T19:56:15.968Z,16.00
2023-11-18T19:58:42.832Z,15.73
2023-11-18T20:01:18.072Z,15.82
2023-11-18T20:03:45.844Z,15.30
2023-11-18T20:06:14.337Z,36.08
2023-11-18T20:08:41.857Z,15.73
2023-11-18T20:11:10.517Z,16.75
2023-11-18T20:13:38.595Z,17.88
2023-11-18T20:16:08.396Z,16.65
2023-11-18T20:18:35.767Z,15.35
2023-11-18T20:21:02.749Z,19.13
2023-11-18T20:23:29.658Z,13.82
2023-11-18T20:25:57.246Z,16.40
2023-11-18T20:28:24.146Z,14.73
2023-11-18T20:30:51.028Z,12.70
2023-11-18T20:33:17.967Z,15.30
2023-11-18T20:35:46.318Z,15.55
2023-11-18T20:38:13.256Z,13.23
2023-11-18T20:40:40.603Z,13.00
2023-11-18T20:43:09.035Z,13.65
2023-11-18T20:45:38.338Z,17.35
2023-11-18T20:48:08.717Z,15.73
2023-11-18T20:50:36.872Z,16.00
2023-11-18T20:53:04.541Z,14.43
2023-11-18T20:55:31.517Z,13.73
2023-11-18T20:57:59.040Z,14.23
2023-11-18T21:00:26.526Z,15.23
2023-11-18T21:02:53.491Z,16.10
2023-11-18T21:05:22.198Z,14.25
2023-11-18T21:07:49.267Z,14.68
2023-11-18T21:10:17.275Z,16.85
2023-11-18T21:12:45.048Z,17.77
2023-11-18T21:15:13.567Z,19.05
2023-11-18T21:17:41.593Z,13.13
2023-11-18T21:20:16.738Z,19.15
2023-11-18T21:22:44.680Z,16.75
2023-11-18T21:25:12.741Z,13.57
2023-11-18T21:27:39.872Z,13.45
2023-11-18T21:30:11.299Z,17.00
2023-11-18T21:32:43.065Z,16.65
2023-11-18T21:35:15.636Z,17.05
2023-11-18T21:37:42.811Z,18.73
2023-11-18T21:40:12.999Z,15.25
2023-11-18T21:42:41.499Z,17.38
2023-11-18T21:45:09.400Z,24.75
2023-11-18T21:47:36.424Z,15.10
2023-11-18T21:50:06.575Z,14.35
2023-11-18T21:52:33.482Z,14.50
2023-11-18T21:55:00.389Z,13.57
2023-11-18T21:57:28.060Z,15.52
2023-11-18T21:59:55.076Z,18.88
2023-11-18T22:02:23.467Z,14.43
2023-11-18T22:04:50.398Z,17.85
2023-11-18T22:07:18.859Z,22.58
2023-11-18T22:09:47.993Z,17.92
2023-11-18T22:12:15.151Z,15.02
2023-11-18T22:14:42.929Z,12.93
2023-11-18T22:17:09.844Z,12.82
2023-11-18T22:19:36.924Z,16.13
2023-11-18T22:22:04.270Z,17.17
2023-11-18T22:24:31.109Z,16.13
2023-11-18T22:26:57.909Z,16.90
2023-11-18T22:29:24.721Z,15.50
2023-11-18T22:31:51.734Z,17.65
2023-11-18T22:34:18.616Z,14.73
2023-11-18T22:36:46.119Z,14.98
2023-11-18T22:39:13.489Z,14.98
2023-11-18T22:41:41.636Z,14.35
2023-11-18T22:44:08.889Z,14.18
2023-11-18T22:46:36.508Z,18.70
2023-11-18T22:49:04.305Z,14.75
2023-11-18T22:51:31.394Z,13.43
2023-11-18T22:54:01.214Z,17.02
2023-11-18T22:56:28.092Z,14.55
2023-11-18T22:58:55.032Z,20.30
2023-11-18T23:01:24.247Z,12.43
2023-11-18T23:03:52.083Z,11.00
2023-11-18T23:06:22.588Z,14.23
2023-11-18T23:08:50.117Z,14.75
2023-11-18T23:11:18.730Z,14.10
2023-11-18T23:13:47.699Z,14.63
2023-11-18T23:16:14.597Z,17.30
2023-11-18T23:18:42.543Z,11.65
2023-11-18T23:21:11.632Z,17.67
2023-11-18T23:23:38.692Z,14.27
2023-11-18T23:26:06.937Z,14.30
2023-11-18T23:28:34.846Z,10.68
2023-11-18T23:31:05.948Z,9.68
2023-11-18T23:33:33.096Z,14.55
2023-11-18T23:35:59.968Z,10.60
2023-11-18T23:38:30.863Z,12.55
2023-11-18T23:40:57.848Z,13.60
2023-11-18T23:43:24.812Z,16.65
2023-11-18T23:45:51.721Z,14.05
2023-11-18T23:48:18.598Z,11.43
2023-11-18T23:50:45.389Z,14.00
2023-11-18T23:53:12.490Z,12.00
2023-11-18T23:55:39.378Z,8.00
2023-11-18T23:58:06.323Z,12.60
